createdAt,value
2022-08-01T00:00:18.367Z,148126.19
2022-08-01T00:02:45.472Z,148091.97
2022-08-01T00:05:12.993Z,148115.19
2022-08-01T00:07:40.195Z,148123.75
2022-08-01T00:10:10.684Z,148131.06
2022-08-01T00:12:38.218Z,148126.19
2022-08-01T00:15:07.150Z,148126.19
2022-08-01T00:17:34.362Z,148155.63
2022-08-01T00:20:03.491Z,148140.91
2022-08-01T00:22:32.240Z,148148.25
2022-08-01T00:24:59.672Z,148124.97
2022-08-01T00:27:26.985Z,148158.03
2022-08-01T00:30:13.247Z,148143.31
2022-08-01T00:32:43.614Z,148129.88
2022-08-01T00:35:11.359Z,148116.41
2022-08-01T00:37:38.484Z,148082.19
2022-08-01T00:40:06.752Z,148170.28
2022-08-01T00:42:33.980Z,148145.84
2022-08-01T00:45:01.062Z,148131.06
2022-08-01T00:47:28.102Z,148028.34
2022-08-01T00:49:55.294Z,148093.16
2022-08-01T00:52:22.482Z,148049.16
2022-08-01T00:54:49.550Z,148069.94
2022-08-01T00:57:16.716Z,148106.63
2022-08-01T01:00:05.913Z,148094.38
2022-08-01T01:02:33.674Z,148089.50
2022-08-01T01:05:00.770Z,148094.38
2022-08-01T01:07:50.021Z,148082.19
2022-08-01T01:10:45.368Z,148122.56
2022-08-01T01:13:21.471Z,148032.03
2022-08-01T01:15:56.211Z,148077.28
2022-08-01T01:18:33.776Z,148069.94
2022-08-01T01:21:36.254Z,148069.94
2022-08-01T01:24:22.662Z,148079.72
2022-08-01T01:27:07.388Z,148060.16
2022-08-01T01:29:59.647Z,148079.72
2022-08-01T01:32:34.836Z,148110.31
2022-08-01T01:35:10.040Z,148045.50
2022-08-01T01:37:40.651Z,148096.84
2022-08-01T01:40:10.627Z,148089.50
2022-08-01T01:42:38.651Z,148069.94
2022-08-01T01:45:07.323Z,148066.25
2022-08-01T01:47:37.254Z,148082.19
2022-08-01T01:50:05.561Z,148074.81
2022-08-01T01:52:32.915Z,148071.13
2022-08-01T01:55:02.424Z,148068.72
2022-08-01T01:57:31.027Z,148058.94
2022-08-01T01:59:59.459Z,148105.41
2022-08-01T02:02:27.932Z,148082.19
2022-08-01T02:04:56.407Z,148111.53
2022-08-01T02:07:25.963Z,148062.63
2022-08-01T02:09:54.911Z,148068.72
2022-08-01T02:12:25.342Z,148091.97
2022-08-01T02:14:55.510Z,148072.41
2022-08-01T02:17:25.449Z,148057.69
2022-08-01T02:19:55.295Z,148014.91
2022-08-01T02:22:30.096Z,148027.13
2022-08-01T02:25:20.499Z,147992.88
2022-08-01T02:27:59.115Z,148065.03
2022-08-01T02:30:26.841Z,148043.03
2022-08-01T02:33:03.008Z,148047.91
2022-08-01T02:35:33.815Z,148038.13
2022-08-01T02:38:04.539Z,148030.81
2022-08-01T02:40:34.744Z,147977.00
2022-08-01T02:43:04.313Z,148001.44
2022-08-01T02:45:33.174Z,148057.69
2022-08-01T02:48:06.990Z,148043.03
2022-08-01T02:50:35.727Z,148035.72
2022-08-01T02:53:04.869Z,148033.25
2022-08-01T02:55:33.583Z,148049.16
2022-08-01T02:58:02.741Z,148044.28
2022-08-01T03:00:31.332Z,148008.78
2022-08-01T03:03:00.364Z,148006.34
2022-08-01T03:05:28.276Z,148013.69
2022-08-01T03:07:56.854Z,147994.13
2022-08-01T03:10:33.537Z,147969.66
2022-08-01T03:13:02.518Z,147913.38
2022-08-01T03:15:33.052Z,147970.91
2022-08-01T03:18:01.829Z,147995.34
2022-08-01T03:20:30.971Z,147950.09
2022-08-01T03:23:00.838Z,147959.88
2022-08-01T03:25:30.048Z,147951.31
2022-08-01T03:28:00.389Z,147991.66
2022-08-01T03:30:28.691Z,147930.50
2022-08-01T03:32:56.498Z,147946.41
2022-08-01T03:35:37.010Z,147969.66
2022-08-01T03:38:16.558Z,147974.53
2022-08-01T03:40:57.732Z,147979.41
2022-08-01T03:43:33.339Z,147978.22
2022-08-01T03:46:08.362Z,147937.84
2022-08-01T03:48:44.663Z,147961.09
2022-08-01T03:51:13.786Z,147954.97
2022-08-01T03:53:43.243Z,147928.03
2022-08-01T03:56:12.179Z,147939.09
2022-08-01T03:58:43.245Z,147942.75
2022-08-01T04:01:15.479Z,147940.31
2022-08-01T04:03:44.221Z,147969.66
2022-08-01T04:06:11.483Z,147951.31
2022-08-01T04:08:39.461Z,147919.47
2022-08-01T04:11:09.253Z,147961.09
2022-08-01T04:13:36.996Z,147934.16
2022-08-01T04:16:04.865Z,147906.00
2022-08-01T04:18:31.981Z,147908.47
2022-08-01T04:20:59.074Z,147969.66
2022-08-01T04:23:28.656Z,147964.75
2022-08-01T04:25:56.882Z,147977.00
2022-08-01T04:28:25.683Z,147957.44
2022-08-01T04:30:59.863Z,147964.75
2022-08-01T04:33:30.839Z,147918.25
2022-08-01T04:36:03.321Z,147931.72
2022-08-01T04:38:34.248Z,147906.00
2022-08-01T04:41:09.331Z,147991.66
2022-08-01T04:43:38.183Z,147958.66
2022-08-01T04:46:07.720Z,147944.00
2022-08-01T04:48:37.918Z,147950.09
2022-08-01T04:51:05.846Z,147893.81
2022-08-01T04:53:33.411Z,147974.53
2022-08-01T04:56:00.482Z,147986.78
2022-08-01T04:58:27.556Z,147959.88
2022-08-01T05:00:54.690Z,147974.53
2022-08-01T05:03:21.795Z,148002.66
2022-08-01T05:05:48.823Z,148018.56
2022-08-01T05:08:17.274Z,147991.66
2022-08-01T05:10:44.326Z,147970.91
2022-08-01T05:13:11.904Z,147978.22
2022-08-01T05:15:42.654Z,147969.66
2022-08-01T05:18:09.733Z,147969.66
2022-08-01T05:20:38.106Z,147999.03
2022-08-01T05:23:06.201Z,148025.94
2022-08-01T05:25:56.090Z,148021.00
2022-08-01T05:28:21.332Z,148047.91
2022-08-01T05:30:48.393Z,148071.13
2022-08-01T05:33:15.416Z,148065.03
2022-08-01T05:35:47.524Z,148065.03
2022-08-01T05:38:15.539Z,148065.03
2022-08-01T05:40:42.607Z,148069.94
2022-08-01T05:43:09.649Z,148052.78
2022-08-01T05:45:36.817Z,148056.47
2022-08-01T05:48:03.962Z,148051.59
2022-08-01T05:50:31.027Z,148072.41
2022-08-01T05:52:58.069Z,148089.50
2022-08-01T05:55:25.130Z,148105.41
2022-08-01T05:57:52.152Z,148096.84
2022-08-01T06:00:19.347Z,148140.91
2022-08-01T06:02:46.517Z,148107.84
2022-08-01T06:05:13.859Z,148120.09
2022-08-01T06:07:41.104Z,148112.72
2022-08-01T06:10:08.890Z,148123.75
2022-08-01T06:12:36.973Z,148167.81
2022-08-01T06:15:05.773Z,148128.66
2022-08-01T06:17:32.917Z,148074.81
2022-08-01T06:20:00.717Z,148080.97
2022-08-01T06:22:27.796Z,148094.38
2022-08-01T06:24:55.012Z,148145.84
2022-08-01T06:27:22.764Z,148084.59
2022-08-01T06:29:53.284Z,148226.56
2022-08-01T06:32:27.180Z,148248.59
2022-08-01T06:34:55.751Z,148285.31
2022-08-01T06:37:23.679Z,148259.59
2022-08-01T06:39:51.046Z,148242.50
2022-08-01T06:42:18.570Z,148311.03
2022-08-01T06:44:46.046Z,148241.22
2022-08-01T06:47:13.687Z,148285.31
2022-08-01T06:49:40.893Z,148292.66
2022-08-01T06:52:08.431Z,148304.88
2022-08-01T06:54:35.789Z,148330.59
2022-08-01T06:57:06.411Z,148385.72
2022-08-01T06:59:33.588Z,148352.69
2022-08-01T07:02:02.116Z,148367.38
2022-08-01T07:04:29.247Z,148330.59
2022-08-01T07:06:57.038Z,148307.34
2022-08-01T07:09:24.216Z,148326.91
2022-08-01T07:11:53.271Z,148366.16
2022-08-01T07:14:23.866Z,148356.31
2022-08-01T07:16:51.443Z,148355.09
2022-08-01T07:19:19.093Z,148309.78
2022-08-01T07:21:46.112Z,148355.09
2022-08-01T07:24:20.862Z,148325.69
2022-08-01T07:26:53.452Z,148341.59
2022-08-01T07:29:23.122Z,148358.78
2022-08-01T07:31:50.249Z,148309.78
2022-08-01T07:34:17.320Z,148399.19
2022-08-01T07:36:44.348Z,148393.03
2022-08-01T07:39:11.519Z,148371.03
2022-08-01T07:41:45.517Z,148428.56
2022-08-01T07:44:25.652Z,148461.59
2022-08-01T07:46:56.554Z,148508.16
2022-08-01T07:49:23.644Z,148541.25
2022-08-01T07:52:03.276Z,148540.00
2022-08-01T07:54:35.013Z,148593.91
2022-08-01T07:57:03.664Z,148540.00
2022-08-01T07:59:31.174Z,148589.00
2022-08-01T08:01:58.522Z,148614.75
2022-08-01T08:04:26.721Z,148564.53
2022-08-01T08:06:54.537Z,148602.47
2022-08-01T08:09:21.824Z,148579.22
2022-08-01T08:11:48.926Z,148571.84
2022-08-01T08:14:17.742Z,148618.41
2022-08-01T08:16:45.410Z,148682.06
2022-08-01T08:19:12.834Z,148699.22
2022-08-01T08:21:40.561Z,148777.69
2022-08-01T08:24:26.643Z,148815.66
2022-08-01T08:26:59.067Z,148887.97
2022-08-01T08:29:27.342Z,148897.75
2022-08-01T08:31:56.964Z,148911.28
2022-08-01T08:34:25.887Z,148885.53
2022-08-01T08:36:53.866Z,148830.41
2022-08-01T08:39:21.688Z,148740.94
2022-08-01T08:41:49.104Z,148733.59
2022-08-01T08:44:18.490Z,148778.91
2022-08-01T08:46:48.123Z,148819.34
2022-08-01T08:49:22.468Z,148872.06
2022-08-01T08:51:52.581Z,148824.25
2022-08-01T08:54:31.341Z,148785.06
2022-08-01T08:57:00.787Z,148852.41
2022-08-01T08:59:29.141Z,148924.78
2022-08-01T09:01:57.227Z,148998.31
2022-08-01T09:04:27.011Z,149059.66
2022-08-01T09:06:55.168Z,149096.47
2022-08-01T09:09:23.750Z,148946.84
2022-08-01T09:11:57.007Z,148968.94
2022-08-01T09:14:30.774Z,148923.56
2022-08-01T09:17:11.917Z,148950.53
2022-08-01T09:19:44.342Z,149017.94
2022-08-01T09:22:13.792Z,149033.88
2022-08-01T09:24:42.445Z,149057.19
2022-08-01T09:27:20.994Z,148878.16
2022-08-01T09:30:00.749Z,148995.91
2022-08-01T09:32:35.843Z,149049.81
2022-08-01T09:35:23.875Z,149119.78
2022-08-01T09:37:51.023Z,149165.09
2022-08-01T09:40:18.145Z,149160.22
2022-08-01T09:42:49.654Z,149165.09
2022-08-01T09:45:41.781Z,149194.56
2022-08-01T09:48:13.035Z,149242.38
2022-08-01T09:50:44.712Z,149249.75
2022-08-01T09:53:25.657Z,149241.16
2022-08-01T09:56:13.005Z,149178.59
2022-08-01T09:59:01.974Z,149262.09
2022-08-01T10:01:43.721Z,149351.63
2022-08-01T10:04:15.654Z,149415.47
2022-08-01T10:06:53.315Z,149513.63
2022-08-01T10:09:35.862Z,149417.91
2022-08-01T10:12:15.135Z,149231.34
2022-08-01T10:14:46.213Z,149113.63
2022-08-01T10:17:18.094Z,149096.47
2022-08-01T10:19:47.267Z,149102.59
2022-08-01T10:22:18.776Z,149128.31
2022-08-01T10:24:48.709Z,149183.50
2022-08-01T10:27:21.633Z,149118.50
2022-08-01T10:30:20.167Z,149101.38
2022-08-01T10:32:53.485Z,149141.81
2022-08-01T10:35:45.547Z,149231.34
2022-08-01T10:38:13.581Z,149162.69
2022-08-01T10:40:42.976Z,149204.38
2022-08-01T10:43:21.646Z,149216.66
2022-08-01T10:45:50.941Z,149204.38
2022-08-01T10:48:36.217Z,149223.97
2022-08-01T10:51:18.010Z,149309.91
2022-08-01T10:53:54.596Z,149298.88
2022-08-01T10:56:27.257Z,149354.09
2022-08-01T10:59:06.540Z,149437.56
2022-08-01T11:01:45.418Z,149268.19
2022-08-01T11:04:17.746Z,149248.53
2022-08-01T11:07:02.926Z,149239.94
2022-08-01T11:09:41.568Z,149259.59
2022-08-01T11:12:23.407Z,149312.34
2022-08-01T11:15:00.429Z,149312.34
2022-08-01T11:17:42.071Z,149257.13
2022-08-01T11:20:17.348Z,149305.00
2022-08-01T11:22:59.821Z,149373.72
2022-08-01T11:26:06.700Z,149452.28
2022-08-01T11:28:28.218Z,149574.97
2022-08-01T11:31:11.006Z,149540.63
2022-08-01T11:33:42.280Z,149597.13
2022-08-01T11:36:12.680Z,149528.34
2022-08-01T11:38:42.485Z,149491.53
2022-08-01T11:41:38.234Z,149538.16
2022-08-01T11:44:28.136Z,149525.91
2022-08-01T11:47:11.630Z,149535.72
2022-08-01T11:49:43.500Z,149626.63
2022-08-01T11:52:19.734Z,149599.59
2022-08-01T11:55:03.519Z,149651.16
2022-08-01T11:57:38.139Z,149570.06
2022-08-01T12:00:15.511Z,149528.34
2022-08-01T12:02:46.790Z,149530.81
2022-08-01T12:05:17.416Z,149560.25
2022-08-01T12:07:45.922Z,149560.25
2022-08-01T12:10:16.416Z,149528.34
2022-08-01T12:12:47.780Z,149522.22
2022-08-01T12:15:15.956Z,149540.63
2022-08-01T12:17:58.563Z,149643.75
2022-08-01T12:20:32.215Z,149679.38
2022-08-01T12:23:13.895Z,149642.56
2022-08-01T12:25:41.470Z,149626.63
2022-08-01T12:28:10.125Z,149754.31
2022-08-01T12:30:38.664Z,149796.06
2022-08-01T12:33:08.015Z,149764.19
2022-08-01T12:35:37.466Z,149798.53
2022-08-01T12:38:14.396Z,149742.06
2022-08-01T12:40:45.604Z,149737.16
2022-08-01T12:43:27.607Z,149792.41
2022-08-01T12:45:59.241Z,149829.25
2022-08-01T12:48:27.374Z,149936.16
2022-08-01T12:50:58.370Z,149896.81
2022-08-01T12:53:39.802Z,149814.47
2022-08-01T12:56:09.051Z,149774.00
2022-08-01T12:58:36.360Z,149570.06
2022-08-01T13:01:09.152Z,149538.16
2022-08-01T13:03:36.342Z,149540.63
2022-08-01T13:06:11.775Z,149552.91
2022-08-01T13:08:39.411Z,149555.34
2022-08-01T13:11:18.288Z,149624.13
2022-08-01T13:13:51.497Z,149680.59
2022-08-01T13:16:31.242Z,149750.66
2022-08-01T13:19:07.778Z,149742.06
2022-08-01T13:21:52.463Z,149711.31
2022-08-01T13:24:29.383Z,149729.72
2022-08-01T13:27:04.043Z,149716.22
2022-08-01T13:29:43.088Z,149818.19
2022-08-01T13:32:28.641Z,149851.31
2022-08-01T13:35:09.081Z,149840.28
2022-08-01T13:37:38.557Z,149830.47
2022-08-01T13:40:10.953Z,149703.91
2022-08-01T13:42:38.551Z,149707.63
2022-08-01T13:45:13.997Z,149660.97
2022-08-01T13:48:03.328Z,149583.63
2022-08-01T13:50:30.428Z,149641.34
2022-08-01T13:52:58.133Z,149592.22
2022-08-01T13:55:25.155Z,149653.63
2022-08-01T13:57:52.342Z,149517.31
2022-08-01T14:00:19.846Z,149533.25
2022-08-01T14:02:47.115Z,149538.16
2022-08-01T14:05:14.179Z,149562.72
2022-08-01T14:07:41.565Z,149604.50
2022-08-01T14:10:18.947Z,149561.50
2022-08-01T14:12:50.486Z,149599.59
2022-08-01T14:15:37.545Z,149521.00
2022-08-01T14:18:06.576Z,149620.44
2022-08-01T14:20:35.426Z,149548.00
2022-08-01T14:23:02.506Z,149638.84
2022-08-01T14:25:58.672Z,149656.06
2022-08-01T14:28:17.321Z,149636.44
2022-08-01T14:30:44.444Z,149801.00
2022-08-01T14:33:12.682Z,149818.19
2022-08-01T14:36:01.927Z,149829.25
2022-08-01T14:38:31.652Z,149777.63
2022-08-01T14:41:01.520Z,149774.00
2022-08-01T14:43:33.047Z,149697.78
2022-08-01T14:46:02.015Z,149691.69
2022-08-01T14:48:30.112Z,149813.25
2022-08-01T14:50:58.571Z,149793.63
2022-08-01T14:53:25.701Z,149852.59
2022-08-01T14:55:52.956Z,149759.22
2022-08-01T14:58:19.991Z,149778.91
2022-08-01T15:00:47.537Z,149771.50
2022-08-01T15:03:14.711Z,149853.81
2022-08-01T15:05:41.805Z,149857.50
2022-08-01T15:08:08.950Z,149891.91
2022-08-01T15:10:36.030Z,149900.50
2022-08-01T15:13:03.191Z,149855.03
2022-08-01T15:15:30.780Z,149777.63
2022-08-01T15:17:57.850Z,149729.72
2022-08-01T15:20:26.186Z,149719.91
2022-08-01T15:22:54.080Z,149695.38
2022-08-01T15:25:21.441Z,149850.09
2022-08-01T15:27:48.809Z,149997.56
2022-08-01T15:30:15.888Z,150056.59
2022-08-01T15:32:43.107Z,150016.00
2022-08-01T15:35:11.104Z,149874.69
2022-08-01T15:37:42.796Z,149792.41
2022-08-01T15:40:12.274Z,149695.38
2022-08-01T15:42:39.979Z,149686.75
2022-08-01T15:45:10.573Z,149702.69
2022-08-01T15:47:40.384Z,149823.09
2022-08-01T15:50:08.003Z,149905.44
2022-08-01T15:52:35.331Z,149948.44
2022-08-01T15:55:02.737Z,149914.03
2022-08-01T15:57:29.809Z,150032.00
2022-08-01T15:59:56.966Z,149955.78
2022-08-01T16:02:24.320Z,149928.75
2022-08-01T16:04:51.414Z,149835.38
2022-08-01T16:07:18.480Z,149684.28
2022-08-01T16:09:45.532Z,149627.84
2022-08-01T16:12:12.603Z,149621.72
2022-08-01T16:14:39.660Z,149641.34
2022-08-01T16:17:06.905Z,149571.34
2022-08-01T16:19:33.938Z,149571.34
2022-08-01T16:22:00.966Z,149651.16
2022-08-01T16:24:30.886Z,149810.84
2022-08-01T16:26:58.435Z,149877.13
2022-08-01T16:29:30.492Z,149896.81
2022-08-01T16:32:08.687Z,149761.69
2022-08-01T16:34:46.812Z,149737.16
2022-08-01T16:37:15.154Z,149616.81
2022-08-01T16:39:42.288Z,149532.03
2022-08-01T16:42:09.617Z,149490.31
2022-08-01T16:44:37.778Z,149442.47
2022-08-01T16:47:05.936Z,149422.81
2022-08-01T16:49:33.362Z,149368.81
2022-08-01T16:52:00.439Z,149376.13
2022-08-01T16:54:27.921Z,149381.03
2022-08-01T16:56:56.012Z,149372.50
2022-08-01T16:59:24.879Z,149305.00
2022-08-01T17:01:59.698Z,149303.78
2022-08-01T17:04:30.324Z,149286.59
2022-08-01T17:06:57.862Z,149298.88
2022-08-01T17:09:24.953Z,149307.44
2022-08-01T17:11:52.011Z,149268.19
2022-08-01T17:14:19.044Z,149280.47
2022-08-01T17:16:46.493Z,149281.69
2022-08-01T17:19:14.813Z,149271.91
2022-08-01T17:21:42.651Z,149206.84
2022-08-01T17:24:12.329Z,149157.78
2022-08-01T17:26:43.609Z,149170.06
2022-08-01T17:29:10.650Z,149223.97
2022-08-01T17:31:37.681Z,149258.41
2022-08-01T17:34:04.734Z,149371.22
2022-08-01T17:36:31.884Z,149552.91
2022-08-01T17:38:59.631Z,149438.78
2022-08-01T17:41:26.728Z,149417.91
2022-08-01T17:43:53.898Z,149335.69
2022-08-01T17:46:20.946Z,149292.72
2022-08-01T17:48:48.276Z,149264.50
2022-08-01T17:51:20.754Z,149101.38
2022-08-01T17:53:57.062Z,149083.00
2022-08-01T17:56:26.910Z,149044.91
2022-08-01T17:58:54.211Z,149084.19
2022-08-01T18:01:21.855Z,149010.59
2022-08-01T18:03:54.000Z,149059.66
2022-08-01T18:06:23.443Z,149008.13
2022-08-01T18:08:55.430Z,149032.69
2022-08-01T18:11:24.605Z,149054.69
2022-08-01T18:13:51.909Z,148933.38
2022-08-01T18:16:19.228Z,148905.13
2022-08-01T18:18:46.354Z,148941.94
2022-08-01T18:21:13.471Z,148835.28
2022-08-01T18:23:40.706Z,148823.03
2022-08-01T18:26:18.357Z,148863.47
2022-08-01T18:28:46.276Z,148891.66
2022-08-01T18:31:16.542Z,148869.59
2022-08-01T18:33:43.951Z,148848.78
2022-08-01T18:36:14.163Z,148858.56
2022-08-01T18:38:59.217Z,148834.03
2022-08-01T18:41:26.666Z,148841.41
2022-08-01T18:44:04.222Z,148807.13
2022-08-01T18:46:38.945Z,148821.81
2022-08-01T18:49:08.670Z,148787.47
2022-08-01T18:51:40.217Z,148747.09
2022-08-01T18:54:10.241Z,148716.41
2022-08-01T18:56:37.318Z,148704.13
2022-08-01T18:59:04.459Z,148726.25
2022-08-01T19:01:31.603Z,148682.06
2022-08-01T19:03:58.697Z,148690.66
2022-08-01T19:06:28.181Z,148668.59
2022-08-01T19:08:58.378Z,148668.59
2022-08-01T19:11:29.242Z,148672.28
2022-08-01T19:13:56.742Z,148628.22
2022-08-01T19:16:24.280Z,148630.63
2022-08-01T19:18:51.364Z,148626.94
2022-08-01T19:21:18.928Z,148591.47
2022-08-01T19:24:04.939Z,148598.78
2022-08-01T19:26:33.851Z,148571.84
2022-08-01T19:29:15.318Z,148559.63
2022-08-01T19:31:48.539Z,148562.06
2022-08-01T19:34:19.217Z,148522.84
2022-08-01T19:36:48.580Z,148444.50
2022-08-01T19:39:18.156Z,148471.44
2022-08-01T19:41:46.001Z,148446.91
2022-08-01T19:44:15.146Z,148410.19
2022-08-01T19:46:43.295Z,148368.56
2022-08-01T19:49:16.645Z,148340.38
2022-08-01T19:51:56.423Z,148329.38
2022-08-01T19:54:27.177Z,148260.84
2022-08-01T19:56:54.997Z,148275.53
2022-08-01T19:59:23.740Z,148257.16
2022-08-01T20:01:55.286Z,148236.34
2022-08-01T20:04:23.065Z,148226.56
2022-08-01T20:06:50.771Z,148207.00
2022-08-01T20:09:18.156Z,148162.94
2022-08-01T20:11:47.147Z,148145.84
2022-08-01T20:14:17.958Z,148143.31
2022-08-01T20:16:45.238Z,148118.88
2022-08-01T20:19:12.864Z,148105.41
2022-08-01T20:22:02.308Z,148089.50
2022-08-01T20:24:45.938Z,148074.81
2022-08-01T20:27:15.485Z,148065.03
2022-08-01T20:29:45.020Z,148045.50
2022-08-01T20:32:14.274Z,148056.47
2022-08-01T20:34:42.921Z,147975.78
2022-08-01T20:37:13.051Z,148029.56
2022-08-01T20:39:43.912Z,148062.63
2022-08-01T20:42:12.700Z,148043.03
2022-08-01T20:44:41.027Z,148018.56
2022-08-01T20:47:08.833Z,147932.91
2022-08-01T20:49:37.375Z,147989.25
2022-08-01T20:52:12.197Z,147915.84
2022-08-01T20:54:43.049Z,147891.34
2022-08-01T20:57:21.394Z,147898.69
2022-08-01T20:59:57.546Z,147925.59
2022-08-01T21:02:36.982Z,147896.25
2022-08-01T21:05:05.496Z,147915.84
2022-08-01T21:07:34.248Z,147892.56
2022-08-01T21:10:08.756Z,147864.44
2022-08-01T21:12:50.108Z,147866.91
2022-08-01T21:15:38.573Z,147832.66
2022-08-01T21:19:10.065Z,147824.16
2022-08-01T21:21:48.197Z,147854.69
2022-08-01T21:24:22.407Z,147803.34
2022-08-01T21:26:51.227Z,147776.44
2022-08-01T21:29:20.085Z,147771.56
2022-08-01T21:32:08.622Z,147761.78
2022-08-01T21:34:38.201Z,147685.97
2022-08-01T21:37:09.709Z,147734.91
2022-08-01T21:39:38.581Z,147730.00
2022-08-01T21:42:09.134Z,147673.78
2022-08-01T21:44:39.220Z,147693.31
2022-08-01T21:47:06.563Z,147661.53
2022-08-01T21:49:40.324Z,147640.78
2022-08-01T21:52:18.138Z,147649.31
2022-08-01T21:55:11.038Z,147612.66
2022-08-01T21:58:07.149Z,147649.31
2022-08-01T22:00:39.348Z,147617.53
2022-08-01T22:03:46.362Z,147620.00
2022-08-01T22:06:14.849Z,147545.50
2022-08-01T22:08:53.631Z,147593.13
2022-08-01T22:11:28.828Z,147561.34
2022-08-01T22:14:00.007Z,147556.47
2022-08-01T22:16:27.570Z,147514.94
2022-08-01T22:18:54.881Z,147508.84
2022-08-01T22:21:22.314Z,147524.72
2022-08-01T22:23:53.024Z,147458.72
2022-08-01T22:26:25.740Z,147497.84
2022-08-01T22:28:55.825Z,147473.38
2022-08-01T22:31:23.605Z,147470.91
2022-08-01T22:33:51.267Z,147425.78
2022-08-01T22:36:20.720Z,147429.41
2022-08-01T22:38:47.906Z,147431.88
2022-08-01T22:41:21.327Z,147419.63
2022-08-01T22:44:03.408Z,147406.19
2022-08-01T22:46:42.145Z,147380.59
2022-08-01T22:49:11.941Z,147397.66
2022-08-01T22:51:54.480Z,147389.13
2022-08-01T22:54:30.093Z,147384.25
2022-08-01T22:57:00.839Z,147391.56
2022-08-01T22:59:42.675Z,147380.59
2022-08-01T23:02:16.188Z,147375.72
2022-08-01T23:04:46.662Z,147378.13
2022-08-01T23:07:20.202Z,147340.28
2022-08-01T23:09:54.213Z,147347.63
2022-08-01T23:12:27.111Z,147341.50
2022-08-01T23:14:56.882Z,147302.47
2022-08-01T23:17:29.945Z,147298.78
2022-08-01T23:20:03.508Z,147226.72
2022-08-01T23:22:32.584Z,147289.03
2022-08-01T23:25:04.525Z,147289.03
2022-08-01T23:27:54.152Z,147278.00
2022-08-01T23:30:25.623Z,147270.72
2022-08-01T23:32:53.484Z,147199.84
2022-08-01T23:35:20.773Z,147248.75
2022-08-01T23:37:48.061Z,147176.69
2022-08-01T23:40:15.081Z,147231.59
2022-08-01T23:42:42.211Z,147149.81
2022-08-01T23:45:09.682Z,147188.91
2022-08-01T23:47:36.730Z,147187.69
2022-08-01T23:50:04.207Z,147168.13
2022-08-01T23:52:32.575Z,147158.38
2022-08-01T23:55:03.453Z,147170.59
2022-08-01T23:57:42.372Z,147081.50
